Mars — XPC8385 — position and weather

sailwx.info

Track history (hours):
 
Tides and Currents Weather Stations Pressure Air Temp Water Temp Dewpoint Dewpoint Depression Visibility Wind Speed Wind Dir Waves Ship Positions

Mars

Last reported at 2017-May-26 10:15 UTC. Time now 2017-May-26 13:13 UTC.
Position N 55°15' E 014°50'.

Length 14 m; draft 1.7 m.

Type: Pilot. MMSI: 219001058.

Date/timePositionNaut miles runAvg speedWind from/ knotsBaromVisibWave heightAir tempDewpointWater temp
2017-May-26 10:15N 55°15' E 014°50'0 0.0
2017-May-26 09:45N 55°15' E 014°50'0 0.0
2017-May-26 09:27N 55°15' E 014°50'0 0.0
2017-May-26 08:57N 55°15' E 014°50'0 0.0
2017-May-26 08:30N 55°15' E 014°50'0 0.0
2017-May-26 07:09N 55°15' E 014°50'0 0.0
2017-May-26 06:51N 55°15' E 014°50'0 0.0
2017-May-26 06:15N 55°15' E 014°50'0 0.0
2017-May-26 04:03N 55°15' E 014°50'0 0.0
2017-May-26 03:54N 55°15' E 014°50'0 0.0
2017-May-26 03:27N 55°15' E 014°50'0 0.0
2017-May-26 00:21N 55°15' E 014°50'0 0.0
2017-May-25 23:57N 55°15' E 014°50'0 0.0
2017-May-25 16:57N 55°15' E 014°50'0 0.0
2017-May-25 09:21N 55°15' E 014°50'0 0.0
2017-May-25 08:59N 55°15' E 014°50'0 0.0
2017-May-25 08:29N 55°15' E 014°50'0 0.0
2017-May-25 07:45N 55°15' E 014°50'0 0.0
2017-May-25 07:15N 55°15' E 014°50'0 0.0
2017-May-25 05:45N 55°15' E 014°50'0 0.0
2017-May-25 05:23N 55°15' E 014°50'0 0.0
2017-May-25 04:03N 55°15' E 014°50'0 0.0
2017-May-25 03:51N 55°15' E 014°50'0 0.0
2017-May-25 03:20N 55°15' E 014°50'0 0.0
2017-May-25 01:51N 55°15' E 014°50'0 0.0
2017-May-25 01:14N 55°15' E 014°50'0 0.0
2017-May-25 00:56N 55°15' E 014°50'0 0.0
2017-May-25 00:14N 55°15' E 014°50'0 0.0
2017-May-24 21:44N 55°15' E 014°50'0 0.0
2017-May-24 20:14N 55°15' E 014°50'0 0.0
2017-May-24 18:38N 55°15' E 014°50'0 0.0
2017-May-24 18:26N 55°15' E 014°50'0 0.0
2017-May-24 17:59N 55°15' E 014°50'0 0.0
2017-May-24 17:29N 55°15' E 014°50'0 0.0
2017-May-24 16:59N 55°15' E 014°50'0 0.0
2017-May-24 16:29N 55°15' E 014°50'0 0.0
2017-May-24 15:59N 55°15' E 014°50'0 0.0
2017-May-24 15:23N 55°15' E 014°50'0 0.0
2017-May-24 14:56N 55°15' E 014°50'0 0.0
2017-May-24 13:59N 55°15' E 014°50'0 0.0
2017-May-24 13:29N 55°15' E 014°50'0 0.0
2017-May-24 12:59N 55°15' E 014°50'0 0.0
2017-May-24 12:29N 55°15' E 014°50'0 0.0
2017-May-24 11:59N 55°15' E 014°50'0 0.0
2017-May-24 08:20N 55°15' E 014°50'0 0.0
2017-May-24 07:44N 55°15' E 014°50'0 0.0
2017-May-24 07:26N 55°15' E 014°50'0 0.0
2017-May-24 05:56N 55°15' E 014°50'0 0.0
2017-May-24 03:49N 55°15' E 014°50'1 4.5
2017-May-24 03:30N 55°16' E 014°51'2 0.4
2017-May-23 23:43N 55°17' E 014°48'0 0.0
2017-May-23 23:01N 55°17' E 014°48'0 0.0
2017-May-23 22:37N 55°17' E 014°48'0 0.0
2017-May-23 22:25N 55°17' E 014°48'0 0.0
2017-May-23 21:37N 55°17' E 014°48'0 0.0
2017-May-23 21:19N 55°17' E 014°48'0 0.0
2017-May-23 20:55N 55°17' E 014°48'0 0.0
2017-May-23 20:25N 55°17' E 014°48'0 0.0
2017-May-23 13:09N 55°17' E 014°48'216.6
2017-May-23 13:01N 55°18' E 014°52'2 0.6
2017-May-23 08:53N 55°17' E 014°48'1 3.5
2017-May-23 08:29N 55°18' E 014°47'1 0.2
2017-May-23 02:30N 55°17' E 014°48'0 0.0
2017-May-23 02:00N 55°17' E 014°48'0 0.0
2017-May-23 01:30N 55°17' E 014°48'0 0.0
2017-May-23 00:59N 55°17' E 014°48'0 0.0
2017-May-23 00:29N 55°17' E 014°48'0 0.0
2017-May-22 21:17N 55°17' E 014°48'0 0.0
2017-May-22 11:23N 55°17' E 014°48'0 0.0
2017-May-22 09:14N 55°17' E 014°48'0 0.0
2017-May-22 04:14N 55°17' E 014°48'0 0.0
2017-May-22 03:56N 55°17' E 014°48'0 0.0
2017-May-22 01:43N 55°17' E 014°48'0 0.0
2017-May-22 01:13N 55°17' E 014°48'0 0.0
2017-May-22 00:55N 55°17' E 014°48'0 0.0
2017-May-22 00:25N 55°17' E 014°48'0 0.0
2017-May-21 23:43N 55°17' E 014°48'0 0.0
2017-May-21 23:19N 55°17' E 014°48'0 0.0
2017-May-21 22:13N 55°17' E 014°48'0 0.0
2017-May-21 21:55N 55°17' E 014°48'0 0.0
2017-May-21 21:13N 55°17' E 014°48'0 0.0
2017-May-21 20:49N 55°17' E 014°48'0 0.0
2017-May-21 20:13N 55°17' E 014°48'0 0.0
2017-May-21 19:55N 55°17' E 014°48'0 0.0
2017-May-21 19:13N 55°17' E 014°48'0 0.0
2017-May-21 07:19N 55°17' E 014°48'1 3.5
2017-May-21 06:59N 55°17' E 014°50'1 0.0
2017-May-19 19:11N 55°17' E 014°48'317.6
2017-May-19 19:00N 55°19' E 014°45'3 0.4
2017-May-19 10:40N 55°17' E 014°48'316.1
2017-May-19 10:30N 55°19' E 014°46'3 0.3
2017-May-19 02:37N 55°17' E 014°48'217.2
2017-May-19 02:31N 55°18' E 014°48'2 1.0
2017-May-19 00:44N 55°17' E 014°48'0 0.0
2017-May-18 18:02N 55°17' E 014°48'0 0.0
2017-May-18 15:14N 55°17' E 014°48'312.9
2017-May-18 14:59N 55°18' E 014°43'2 1.8
2017-May-18 14:00N 55°20' E 014°45'3 1.2
2017-May-18 11:16N 55°17' E 014°48'310.1
2017-May-18 10:59N 55°19' E 014°46'3 0.5
2017-May-18 05:19N 55°17' E 014°48'310.4
2017-May-18 05:00N 55°20' E 014°49'3 0.2
2017-May-17 09:12N 55°17' E 014°48'210.0
2017-May-17 09:00N 55°19' E 014°48'2 0.3
2017-May-17 01:52N 55°17' E 014°48'0 0.0
2017-May-16 23:58N 55°17' E 014°48'0 0.0
2017-May-16 23:22N 55°17' E 014°48'0 0.0
2017-May-16 21:58N 55°17' E 014°48'0 0.0
2017-May-16 21:28N 55°17' E 014°48'0 0.0
2017-May-16 20:58N 55°17' E 014°48'0 0.0
2017-May-16 20:25N 55°17' E 014°48'  
Track history (hours):
 
Tides and Currents Weather Stations Pressure Air Temp Water Temp Dewpoint Dewpoint Depression Visibility Wind Speed Wind Dir Waves Ship Positions

Mars

Last reported at 2017-May-26 10:15 UTC. Time now 2017-May-26 13:13 UTC.
Position N 55°15' E 014°50'.

Length 14 m; draft 1.7 m.

Type: Pilot. MMSI: 219001058.

Date/timePositionNaut miles runAvg speedWind from/ knotsBaromVisibWave heightAir tempDewpointWater temp
2017-May-26 10:15N 55°15' E 014°50'0 0.0
2017-May-26 09:45N 55°15' E 014°50'0 0.0
2017-May-26 09:27N 55°15' E 014°50'0 0.0
2017-May-26 08:57N 55°15' E 014°50'0 0.0
2017-May-26 08:30N 55°15' E 014°50'0 0.0
2017-May-26 07:09N 55°15' E 014°50'0 0.0
2017-May-26 06:51N 55°15' E 014°50'0 0.0
2017-May-26 06:15N 55°15' E 014°50'0 0.0
2017-May-26 04:03N 55°15' E 014°50'0 0.0
2017-May-26 03:54N 55°15' E 014°50'0 0.0
2017-May-26 03:27N 55°15' E 014°50'0 0.0
2017-May-26 00:21N 55°15' E 014°50'0 0.0
2017-May-25 23:57N 55°15' E 014°50'0 0.0
2017-May-25 16:57N 55°15' E 014°50'0 0.0
2017-May-25 09:21N 55°15' E 014°50'0 0.0
2017-May-25 08:59N 55°15' E 014°50'0 0.0
2017-May-25 08:29N 55°15' E 014°50'0 0.0
2017-May-25 07:45N 55°15' E 014°50'0 0.0
2017-May-25 07:15N 55°15' E 014°50'0 0.0
2017-May-25 05:45N 55°15' E 014°50'0 0.0
2017-May-25 05:23N 55°15' E 014°50'0 0.0
2017-May-25 04:03N 55°15' E 014°50'0 0.0
2017-May-25 03:51N 55°15' E 014°50'0 0.0
2017-May-25 03:20N 55°15' E 014°50'0 0.0
2017-May-25 01:51N 55°15' E 014°50'0 0.0
2017-May-25 01:14N 55°15' E 014°50'0 0.0
2017-May-25 00:56N 55°15' E 014°50'0 0.0
2017-May-25 00:14N 55°15' E 014°50'0 0.0
2017-May-24 21:44N 55°15' E 014°50'0 0.0
2017-May-24 20:14N 55°15' E 014°50'0 0.0
2017-May-24 18:38N 55°15' E 014°50'0 0.0
2017-May-24 18:26N 55°15' E 014°50'0 0.0
2017-May-24 17:59N 55°15' E 014°50'0 0.0
2017-May-24 17:29N 55°15' E 014°50'0 0.0
2017-May-24 16:59N 55°15' E 014°50'0 0.0
2017-May-24 16:29N 55°15' E 014°50'0 0.0
2017-May-24 15:59N 55°15' E 014°50'0 0.0
2017-May-24 15:23N 55°15' E 014°50'0 0.0
2017-May-24 14:56N 55°15' E 014°50'0 0.0
2017-May-24 13:59N 55°15' E 014°50'0 0.0
2017-May-24 13:29N 55°15' E 014°50'0 0.0
2017-May-24 12:59N 55°15' E 014°50'0 0.0
2017-May-24 12:29N 55°15' E 014°50'0 0.0
2017-May-24 11:59N 55°15' E 014°50'0 0.0
2017-May-24 08:20N 55°15' E 014°50'0 0.0
2017-May-24 07:44N 55°15' E 014°50'0 0.0
2017-May-24 07:26N 55°15' E 014°50'0 0.0
2017-May-24 05:56N 55°15' E 014°50'0 0.0
2017-May-24 03:49N 55°15' E 014°50'1 4.5
2017-May-24 03:30N 55°16' E 014°51'2 0.4
2017-May-23 23:43N 55°17' E 014°48'0 0.0
2017-May-23 23:01N 55°17' E 014°48'0 0.0
2017-May-23 22:37N 55°17' E 014°48'0 0.0
2017-May-23 22:25N 55°17' E 014°48'0 0.0
2017-May-23 21:37N 55°17' E 014°48'0 0.0
2017-May-23 21:19N 55°17' E 014°48'0 0.0
2017-May-23 20:55N 55°17' E 014°48'0 0.0
2017-May-23 20:25N 55°17' E 014°48'0 0.0
2017-May-23 13:09N 55°17' E 014°48'216.6
2017-May-23 13:01N 55°18' E 014°52'2 0.6
2017-May-23 08:53N 55°17' E 014°48'1 3.5
2017-May-23 08:29N 55°18' E 014°47'1 0.2
2017-May-23 02:30N 55°17' E 014°48'0 0.0
2017-May-23 02:00N 55°17' E 014°48'0 0.0
2017-May-23 01:30N 55°17' E 014°48'0 0.0
2017-May-23 00:59N 55°17' E 014°48'0 0.0
2017-May-23 00:29N 55°17' E 014°48'0 0.0
2017-May-22 21:17N 55°17' E 014°48'0 0.0
2017-May-22 11:23N 55°17' E 014°48'0 0.0
2017-May-22 09:14N 55°17' E 014°48'0 0.0
2017-May-22 04:14N 55°17' E 014°48'0 0.0
2017-May-22 03:56N 55°17' E 014°48'0 0.0
2017-May-22 01:43N 55°17' E 014°48'0 0.0
2017-May-22 01:13N 55°17' E 014°48'0 0.0
2017-May-22 00:55N 55°17' E 014°48'0 0.0
2017-May-22 00:25N 55°17' E 014°48'0 0.0
2017-May-21 23:43N 55°17' E 014°48'0 0.0
2017-May-21 23:19N 55°17' E 014°48'0 0.0
2017-May-21 22:13N 55°17' E 014°48'0 0.0
2017-May-21 21:55N 55°17' E 014°48'0 0.0
2017-May-21 21:13N 55°17' E 014°48'0 0.0
2017-May-21 20:49N 55°17' E 014°48'0 0.0
2017-May-21 20:13N 55°17' E 014°48'0 0.0
2017-May-21 19:55N 55°17' E 014°48'0 0.0
2017-May-21 19:13N 55°17' E 014°48'0 0.0
2017-May-21 07:19N 55°17' E 014°48'1 3.5
2017-May-21 06:59N 55°17' E 014°50'1 0.0
2017-May-19 19:11N 55°17' E 014°48'317.6
2017-May-19 19:00N 55°19' E 014°45'3 0.4
2017-May-19 10:40N 55°17' E 014°48'316.1
2017-May-19 10:30N 55°19' E 014°46'3 0.3
2017-May-19 02:37N 55°17' E 014°48'217.2
2017-May-19 02:31N 55°18' E 014°48'2 1.0
2017-May-19 00:44N 55°17' E 014°48'0 0.0
2017-May-18 18:02N 55°17' E 014°48'0 0.0
2017-May-18 15:14N 55°17' E 014°48'312.9
2017-May-18 14:59N 55°18' E 014°43'2 1.8
2017-May-18 14:00N 55°20' E 014°45'3 1.2
2017-May-18 11:16N 55°17' E 014°48'310.1
2017-May-18 10:59N 55°19' E 014°46'3 0.5
2017-May-18 05:19N 55°17' E 014°48'310.4
2017-May-18 05:00N 55°20' E 014°49'3 0.2
2017-May-17 09:12N 55°17' E 014°48'210.0
2017-May-17 09:00N 55°19' E 014°48'2 0.3
2017-May-17 01:52N 55°17' E 014°48'0 0.0
2017-May-16 23:58N 55°17' E 014°48'0 0.0
2017-May-16 23:22N 55°17' E 014°48'0 0.0
2017-May-16 21:58N 55°17' E 014°48'0 0.0
2017-May-16 21:28N 55°17' E 014°48'0 0.0
2017-May-16 20:58N 55°17' E 014°48'0 0.0
2017-May-16 20:25N 55°17' E 014°48'  

Dump ship's entire track history